Glade Park, CO (81523)

2:43 PM MDT on September 20, 2014 (GMT -0600)
RAWS LITTLE DOLORES CO US | Change Station
CLOSE
Current Station
Personal Weather Station
Location: Glade Park, CO
Elevation: 6795 ft
Nearby Weather Stations
Active Advisory: Special Statement

Elev 6795 ft 38.97 °N, 108.94 °W | Updated 54 minutes ago

Clear
Clear
82 °F
Feels Like 80 °F
N
7
Wind Variable Wind from NE
Gusts 17.0 mph

Today
High -- | Low -- °F
--% Chance of Precip.
Yesterday
High -- | Low -- °F
Precip. -- in
7:00 AM 7:15 PM
Waning Crescent, 10% visible
Pressure 30.11 in
Visibility 7.0 miles
Clouds Clear
Heat Index 80 °F
Dew Point 37 °F
Humidity 20%
Rainfall 0.00 in
Snow Depth 0 in , 9 in , 6 in
UV 7 out of 12
Pollen 5.70 out of 12
Air Quality Not available.
Flu Activity Not available.
METAR KAJZ 202035Z AUTO 25006KT 7SM CLR 32/04 A3011 RMK AO2 T03230038

More Conditions Fewer Conditions

Pressure 30.11 in
Visibility 7.0 miles
Clouds Clear
Heat Index 80 °F
Dew Point 37 °F
Humidity 20%
Rainfall 0.00 in
Snow Depth 0 in , 9 in , 6 in
UV 7 out of 12
Pollen 5.70 out of 12
Air Quality Not available.
Flu Activity Not available.
METAR KAJZ 202035Z AUTO 25006KT 7SM CLR 32/04 A3011 RMK AO2 T03230038

More Conditions Fewer Conditions

10-Day Weather Forecast

Almanac

Astronomy

Sep. 20, 2014 Rise Set
Actual Time 7:00 AM MDT 7:15 PM MDT
Civil Twilight 6:34 AM MDT 7:41 PM MDT
Nautical Twilight 6:02 AM MDT 8:12 PM MDT
Astronomical Twilight 5:31 AM MDT 8:44 PM MDT
Moon 3:44 AM MDT 5:19 PM MDT
Length of Visible Light 13h 07m
Length of Day
12h 14m
Tomorrow will be 2m 31s shorter.
Waning Crescent, 10% of the Moon is Illuminated
Today
Waning Crescent
Sep 24
New
Oct 1
First Quarter
Oct 8
Full
Oct 15
Last Quarter

Today's Extremes

State Highs State Lows

Community

WunderPhotos

Upload Photos

1,754,945 photos uploaded!

WunderBlogs® & News

Nearby

Snow Depth

Station Depth Elevation
Berthoud Summit 0 in 11300 ft
Mccoy Park 9 in 9480 ft
Mancos 6 in 10000 ft
Independence Pass 186 in 10600 ft
Grayback 0 in 11620 ft

Earthquake Activity

City Distance Mag. Time & Date
No recent earthquake activity has been reported nearby.
Minimum magnitude displayed is 2.5.

Coastal Water Temperatures

Place Temperature
No Stations Reporting

Nearby Weather Stations